sensor_id;sensor_type;location;lat;lon;timestamp;noise_LAeq;noise_LA_min;noise_LA_max;noise_LA01;noise_LA95
72736;Laerm;60856;53.238;10.448;2023-04-25T00:05:05;46.56;45.21;49.68;;
72736;Laerm;60856;53.238;10.448;2023-04-25T00:07:31;46.56;45.38;50.08;;
72736;Laerm;60856;53.238;10.448;2023-04-25T00:09:58;46.56;45.24;49.79;;
72736;Laerm;60856;53.238;10.448;2023-04-25T00:12:24;46.56;45.34;49.92;;
72736;Laerm;60856;53.238;10.448;2023-04-25T00:14:49;46.57;45.00;49.86;;
72736;Laerm;60856;53.238;10.448;2023-04-25T00:17:16;46.56;45.29;50.73;;
72736;Laerm;60856;53.238;10.448;2023-04-25T00:19:42;46.56;45.32;49.36;;
72736;Laerm;60856;53.238;10.448;2023-04-25T00:22:12;46.55;45.22;50.26;;
72736;Laerm;60856;53.238;10.448;2023-04-25T00:24:39;46.56;45.26;49.47;;
72736;Laerm;60856;53.238;10.448;2023-04-25T00:27:06;46.55;45.26;49.98;;
72736;Laerm;60856;53.238;10.448;2023-04-25T00:29:54;46.55;45.36;50.09;;
72736;Laerm;60856;53.238;10.448;2023-04-25T00:32:21;46.56;45.23;49.73;;
72736;Laerm;60856;53.238;10.448;2023-04-25T00:34:48;46.57;45.26;49.70;;
72736;Laerm;60856;53.238;10.448;2023-04-25T00:37:15;46.55;45.18;49.83;;
72736;Laerm;60856;53.238;10.448;2023-04-25T00:39:44;46.57;45.39;49.82;;
72736;Laerm;60856;53.238;10.448;2023-04-25T00:42:11;46.57;45.31;49.79;;
72736;Laerm;60856;53.238;10.448;2023-04-25T00:44:59;46.55;45.09;49.70;;
72736;Laerm;60856;53.238;10.448;2023-04-25T00:47:25;46.55;45.26;49.53;;
72736;Laerm;60856;53.238;10.448;2023-04-25T00:49:54;46.56;45.30;50.62;;
72736;Laerm;60856;53.238;10.448;2023-04-25T00:52:22;46.55;45.27;49.61;;
72736;Laerm;60856;53.238;10.448;2023-04-25T00:54:48;46.57;45.36;50.23;;
72736;Laerm;60856;53.238;10.448;2023-04-25T00:57:14;46.55;45.38;49.67;;
72736;Laerm;60856;53.238;10.448;2023-04-25T00:59:40;46.55;45.33;49.76;;
72736;Laerm;60856;53.238;10.448;2023-04-25T01:02:31;46.55;45.35;49.86;;
72736;Laerm;60856;53.238;10.448;2023-04-25T01:04:58;46.55;45.14;49.84;;
72736;Laerm;60856;53.238;10.448;2023-04-25T01:07:24;46.54;45.30;49.77;;
72736;Laerm;60856;53.238;10.448;2023-04-25T01:09:51;46.56;45.36;49.78;;
72736;Laerm;60856;53.238;10.448;2023-04-25T01:12:16;46.55;45.17;49.96;;
72736;Laerm;60856;53.238;10.448;2023-04-25T01:14:42;46.56;45.23;49.58;;
72736;Laerm;60856;53.238;10.448;2023-04-25T01:17:08;46.56;45.31;49.97;;
72736;Laerm;60856;53.238;10.448;2023-04-25T01:19:34;46.55;45.33;49.80;;
72736;Laerm;60856;53.238;10.448;2023-04-25T01:22:25;46.56;45.38;49.96;;
72736;Laerm;60856;53.238;10.448;2023-04-25T01:24:51;46.56;45.39;50.20;;
72736;Laerm;60856;53.238;10.448;2023-04-25T01:27:19;46.54;45.21;49.65;;
72736;Laerm;60856;53.238;10.448;2023-04-25T01:29:46;46.54;45.28;49.81;;
72736;Laerm;60856;53.238;10.448;2023-04-25T01:32:12;46.54;45.08;49.52;;
72736;Laerm;60856;53.238;10.448;2023-04-25T01:34:40;46.56;45.31;49.94;;
72736;Laerm;60856;53.238;10.448;2023-04-25T01:40:09;46.55;45.39;49.69;;
72736;Laerm;60856;53.238;10.448;2023-04-25T01:42:55;46.56;45.37;49.83;;
72736;Laerm;60856;53.238;10.448;2023-04-25T01:45:21;46.54;45.04;49.94;;
72736;Laerm;60856;53.238;10.448;2023-04-25T02:39:36;46.56;45.25;49.65;;
72736;Laerm;60856;53.238;10.448;2023-04-25T02:42:03;46.54;45.15;49.77;;
72736;Laerm;60856;53.238;10.448;2023-04-25T02:47:20;46.54;45.20;50.63;;
72736;Laerm;60856;53.238;10.448;2023-04-25T02:49:46;46.56;45.37;49.67;;
72736;Laerm;60856;53.238;10.448;2023-04-25T02:52:11;46.56;45.36;49.52;;
72736;Laerm;60856;53.238;10.448;2023-04-25T03:19:54;46.56;45.27;49.85;;
72736;Laerm;60856;53.238;10.448;2023-04-25T03:22:19;46.57;45.30;50.02;;
72736;Laerm;60856;53.238;10.448;2023-04-25T03:24:45;46.57;44.97;49.54;;
72736;Laerm;60856;53.238;10.448;2023-04-25T03:27:11;46.53;45.40;50.44;;
72736;Laerm;60856;53.238;10.448;2023-04-25T03:29:42;46.55;45.07;49.89;;
72736;Laerm;60856;53.238;10.448;2023-04-25T03:53:30;46.55;45.17;49.62;;
72736;Laerm;60856;53.238;10.448;2023-04-25T04:03:47;46.55;45.35;49.62;;
72736;Laerm;60856;53.238;10.448;2023-04-25T04:06:12;46.56;45.36;50.01;;
72736;Laerm;60856;53.238;10.448;2023-04-25T04:08:38;46.57;45.26;50.69;;
72736;Laerm;60856;53.238;10.448;2023-04-25T04:11:03;46.54;45.19;49.40;;
72736;Laerm;60856;53.238;10.448;2023-04-25T04:13:28;46.53;45.08;49.55;;
72736;Laerm;60856;53.238;10.448;2023-04-25T04:15:54;46.54;45.35;49.47;;
72736;Laerm;60856;53.238;10.448;2023-04-25T04:18:20;46.55;45.31;49.63;;
72736;Laerm;60856;53.238;10.448;2023-04-25T04:20:45;46.54;45.39;49.29;;
72736;Laerm;60856;53.238;10.448;2023-04-25T04:23:11;46.55;45.24;49.59;;
72736;Laerm;60856;53.238;10.448;2023-04-25T04:25:36;46.54;45.08;49.83;;
72736;Laerm;60856;53.238;10.448;2023-04-25T04:28:02;46.54;45.37;49.70;;
72736;Laerm;60856;53.238;10.448;2023-04-25T04:30:27;46.55;45.32;49.97;;
72736;Laerm;60856;53.238;10.448;2023-04-25T04:32:56;46.57;45.22;50.31;;
72736;Laerm;60856;53.238;10.448;2023-04-25T04:35:21;46.57;45.28;49.77;;
72736;Laerm;60856;53.238;10.448;2023-04-25T04:37:47;46.57;45.36;49.35;;
72736;Laerm;60856;53.238;10.448;2023-04-25T04:40:13;46.57;45.28;49.88;;
72736;Laerm;60856;53.238;10.448;2023-04-25T04:42:40;46.61;45.36;49.70;;
72736;Laerm;60856;53.238;10.448;2023-04-25T04:45:06;46.61;45.21;49.72;;
72736;Laerm;60856;53.238;10.448;2023-04-25T04:47:31;46.61;45.36;50.20;;
72736;Laerm;60856;53.238;10.448;2023-04-25T04:49:57;46.65;45.38;50.10;;
72736;Laerm;60856;53.238;10.448;2023-04-25T04:52:22;46.70;45.05;49.63;;
72736;Laerm;60856;53.238;10.448;2023-04-25T04:54:48;46.73;45.55;49.94;;
72736;Laerm;60856;53.238;10.448;2023-04-25T04:57:13;46.79;45.41;49.93;;
72736;Laerm;60856;53.238;10.448;2023-04-25T04:59:38;47.01;45.70;50.38;;
72736;Laerm;60856;53.238;10.448;2023-04-25T05:02:03;47.05;45.80;50.24;;
72736;Laerm;60856;53.238;10.448;2023-04-25T05:04:29;47.07;45.83;49.92;;
72736;Laerm;60856;53.238;10.448;2023-04-25T05:06:54;47.23;45.76;50.24;;
72736;Laerm;60856;53.238;10.448;2023-04-25T05:09:19;47.51;46.22;50.49;;
72736;Laerm;60856;53.238;10.448;2023-04-25T05:11:45;47.90;46.55;50.41;;
72736;Laerm;60856;53.238;10.448;2023-04-25T05:14:13;48.39;47.12;50.82;;
72736;Laerm;60856;53.238;10.448;2023-04-25T05:16:38;47.89;45.65;50.54;;
72736;Laerm;60856;53.238;10.448;2023-04-25T05:19:03;48.98;47.18;51.55;;
72736;Laerm;60856;53.238;10.448;2023-04-25T05:21:28;49.60;48.19;52.33;;
72736;Laerm;60856;53.238;10.448;2023-04-25T05:23:54;50.08;48.75;51.92;;
72736;Laerm;60856;53.238;10.448;2023-04-25T05:26:19;50.52;47.33;52.61;;
72736;Laerm;60856;53.238;10.448;2023-04-25T05:28:45;49.90;46.00;52.54;;
72736;Laerm;60856;53.238;10.448;2023-04-25T05:31:10;48.06;45.21;52.59;;
72736;Laerm;60856;53.238;10.448;2023-04-25T05:33:36;46.65;44.86;50.58;;
72736;Laerm;60856;53.238;10.448;2023-04-25T05:36:01;47.01;45.28;50.35;;
72736;Laerm;60856;53.238;10.448;2023-04-25T05:38:26;48.12;45.44;52.50;;
72736;Laerm;60856;53.238;10.448;2023-04-25T05:40:51;51.12;49.86;53.14;;
72736;Laerm;60856;53.238;10.448;2023-04-25T05:43:17;51.68;50.07;53.30;;
72736;Laerm;60856;53.238;10.448;2023-04-25T05:45:42;52.55;50.75;54.37;;
72736;Laerm;60856;53.238;10.448;2023-04-25T05:48:07;53.30;48.40;54.88;;
72736;Laerm;60856;53.238;10.448;2023-04-25T05:50:32;49.37;45.29;53.99;;
72736;Laerm;60856;53.238;10.448;2023-04-25T05:52:58;46.61;45.22;49.59;;
72736;Laerm;60856;53.238;10.448;2023-04-25T05:55:23;46.59;45.17;49.86;;
72736;Laerm;60856;53.238;10.448;2023-04-25T05:57:48;46.60;45.38;49.83;;
72736;Laerm;60856;53.238;10.448;2023-04-25T06:00:13;46.60;45.37;49.93;;
72736;Laerm;60856;53.238;10.448;2023-04-25T06:02:40;46.61;45.16;49.69;;
72736;Laerm;60856;53.238;10.448;2023-04-25T06:05:06;46.62;45.42;49.74;;
72736;Laerm;60856;53.238;10.448;2023-04-25T06:07:31;46.61;45.32;49.78;;
72736;Laerm;60856;53.238;10.448;2023-04-25T06:09:56;46.61;45.31;50.37;;
72736;Laerm;60856;53.238;10.448;2023-04-25T06:12:22;46.58;45.41;50.40;;
72736;Laerm;60856;53.238;10.448;2023-04-25T06:14:47;46.60;45.36;49.51;;
72736;Laerm;60856;53.238;10.448;2023-04-25T06:17:13;46.59;45.28;49.88;;
72736;Laerm;60856;53.238;10.448;2023-04-25T06:19:38;46.58;45.31;49.71;;
72736;Laerm;60856;53.238;10.448;2023-04-25T06:22:03;46.57;45.20;50.19;;
72736;Laerm;60856;53.238;10.448;2023-04-25T06:24:28;46.57;45.08;49.63;;
72736;Laerm;60856;53.238;10.448;2023-04-25T06:26:54;46.58;45.24;49.29;;
72736;Laerm;60856;53.238;10.448;2023-04-25T06:29:19;46.56;45.42;49.74;;
72736;Laerm;60856;53.238;10.448;2023-04-25T06:31:45;46.59;45.36;49.97;;
72736;Laerm;60856;53.238;10.448;2023-04-25T06:34:10;46.57;45.37;49.72;;
72736;Laerm;60856;53.238;10.448;2023-04-25T06:36:35;46.57;45.36;49.89;;
72736;Laerm;60856;53.238;10.448;2023-04-25T06:39:00;46.57;45.08;50.46;;
72736;Laerm;60856;53.238;10.448;2023-04-25T06:41:26;46.57;45.27;50.12;;
72736;Laerm;60856;53.238;10.448;2023-04-25T06:43:51;46.60;45.19;49.96;;
72736;Laerm;60856;53.238;10.448;2023-04-25T06:46:16;46.59;45.31;49.53;;
72736;Laerm;60856;53.238;10.448;2023-04-25T06:48:41;46.56;45.27;49.39;;
72736;Laerm;60856;53.238;10.448;2023-04-25T06:51:07;46.59;45.15;49.57;;
72736;Laerm;60856;53.238;10.448;2023-04-25T06:53:32;46.57;45.38;50.16;;
72736;Laerm;60856;53.238;10.448;2023-04-25T06:55:57;46.57;45.13;49.88;;
72736;Laerm;60856;53.238;10.448;2023-04-25T06:58:22;46.59;45.36;49.77;;
72736;Laerm;60856;53.238;10.448;2023-04-25T07:00:48;46.60;45.18;49.91;;
72736;Laerm;60856;53.238;10.448;2023-04-25T07:03:13;46.60;45.11;49.89;;
72736;Laerm;60856;53.238;10.448;2023-04-25T07:05:38;46.59;45.33;49.96;;
72736;Laerm;60856;53.238;10.448;2023-04-25T07:08:04;46.57;44.97;49.52;;
72736;Laerm;60856;53.238;10.448;2023-04-25T07:10:29;46.56;45.34;50.18;;
72736;Laerm;60856;53.238;10.448;2023-04-25T07:12:54;46.57;45.17;49.69;;
72736;Laerm;60856;53.238;10.448;2023-04-25T07:15:20;46.59;45.25;49.91;;
72736;Laerm;60856;53.238;10.448;2023-04-25T07:17:45;46.61;45.26;50.75;;
72736;Laerm;60856;53.238;10.448;2023-04-25T07:20:11;46.60;45.28;49.58;;
72736;Laerm;60856;53.238;10.448;2023-04-25T07:22:36;46.62;45.15;49.74;;
72736;Laerm;60856;53.238;10.448;2023-04-25T07:25:01;46.60;45.38;49.80;;
72736;Laerm;60856;53.238;10.448;2023-04-25T07:27:27;46.59;45.19;49.83;;
72736;Laerm;60856;53.238;10.448;2023-04-25T07:29:53;46.60;44.98;49.57;;
72736;Laerm;60856;53.238;10.448;2023-04-25T07:32:18;46.57;45.33;50.29;;
72736;Laerm;60856;53.238;10.448;2023-04-25T07:34:43;46.57;45.24;49.87;;
72736;Laerm;60856;53.238;10.448;2023-04-25T07:37:09;46.59;45.42;49.91;;
72736;Laerm;60856;53.238;10.448;2023-04-25T07:39:34;46.57;45.27;50.31;;
72736;Laerm;60856;53.238;10.448;2023-04-25T07:42:00;46.58;45.28;49.64;;
72736;Laerm;60856;53.238;10.448;2023-04-25T07:44:25;46.57;45.15;49.84;;
72736;Laerm;60856;53.238;10.448;2023-04-25T07:46:50;46.60;45.42;49.60;;
72736;Laerm;60856;53.238;10.448;2023-04-25T07:49:16;46.61;45.41;49.94;;
72736;Laerm;60856;53.238;10.448;2023-04-25T07:51:41;46.60;45.25;50.00;;
72736;Laerm;60856;53.238;10.448;2023-04-25T07:54:08;46.58;45.38;49.71;;
72736;Laerm;60856;53.238;10.448;2023-04-25T07:56:33;46.61;45.16;49.59;;
72736;Laerm;60856;53.238;10.448;2023-04-25T07:58:58;46.59;45.35;49.82;;
72736;Laerm;60856;53.238;10.448;2023-04-25T08:01:24;46.57;45.36;50.05;;
72736;Laerm;60856;53.238;10.448;2023-04-25T08:03:49;46.59;45.26;50.46;;
72736;Laerm;60856;53.238;10.448;2023-04-25T08:06:15;46.60;45.32;50.70;;
72736;Laerm;60856;53.238;10.448;2023-04-25T08:08:40;46.59;45.32;49.70;;
72736;Laerm;60856;53.238;10.448;2023-04-25T08:11:05;46.60;45.24;49.65;;
72736;Laerm;60856;53.238;10.448;2023-04-25T08:13:31;46.59;45.11;49.48;;
72736;Laerm;60856;53.238;10.448;2023-04-25T08:15:56;46.59;45.23;49.96;;
72736;Laerm;60856;53.238;10.448;2023-04-25T08:18:21;46.60;45.31;49.82;;
72736;Laerm;60856;53.238;10.448;2023-04-25T08:20:46;46.60;45.22;49.57;;
72736;Laerm;60856;53.238;10.448;2023-04-25T08:23:12;46.60;45.31;49.89;;
72736;Laerm;60856;53.238;10.448;2023-04-25T08:25:37;46.60;45.40;50.38;;
72736;Laerm;60856;53.238;10.448;2023-04-25T08:28:02;46.58;45.13;50.53;;
72736;Laerm;60856;53.238;10.448;2023-04-25T08:30:28;46.60;45.31;49.87;;
72736;Laerm;60856;53.238;10.448;2023-04-25T08:32:53;46.60;45.22;49.75;;
72736;Laerm;60856;53.238;10.448;2023-04-25T08:35:19;46.60;45.35;50.24;;
72736;Laerm;60856;53.238;10.448;2023-04-25T08:37:45;46.60;45.34;50.07;;
72736;Laerm;60856;53.238;10.448;2023-04-25T08:40:11;46.61;45.37;49.74;;
72736;Laerm;60856;53.238;10.448;2023-04-25T08:42:37;46.61;45.19;49.89;;
72736;Laerm;60856;53.238;10.448;2023-04-25T08:45:02;46.62;45.27;49.91;;
72736;Laerm;60856;53.238;10.448;2023-04-25T08:47:28;46.63;45.20;49.77;;
72736;Laerm;60856;53.238;10.448;2023-04-25T08:49:54;46.61;45.26;49.62;;
72736;Laerm;60856;53.238;10.448;2023-04-25T08:52:22;46.63;45.36;49.79;;
72736;Laerm;60856;53.238;10.448;2023-04-25T08:54:48;46.61;45.26;49.59;;
72736;Laerm;60856;53.238;10.448;2023-04-25T08:57:13;46.61;45.30;50.12;;
72736;Laerm;60856;53.238;10.448;2023-04-25T08:59:40;46.61;45.23;50.00;;
72736;Laerm;60856;53.238;10.448;2023-04-25T09:02:10;46.62;45.09;49.60;;
72736;Laerm;60856;53.238;10.448;2023-04-25T09:04:39;46.63;45.27;49.78;;
72736;Laerm;60856;53.238;10.448;2023-04-25T09:07:04;46.60;45.36;49.59;;
72736;Laerm;60856;53.238;10.448;2023-04-25T09:09:30;46.58;45.29;49.71;;
72736;Laerm;60856;53.238;10.448;2023-04-25T09:11:55;46.61;45.33;49.95;;
72736;Laerm;60856;53.238;10.448;2023-04-25T09:14:21;46.60;45.30;49.39;;
72736;Laerm;60856;53.238;10.448;2023-04-25T09:19:22;46.61;45.19;49.67;;
72736;Laerm;60856;53.238;10.448;2023-04-25T09:21:51;46.59;45.38;49.80;;
72736;Laerm;60856;53.238;10.448;2023-04-25T09:24:29;46.61;45.15;49.80;;
72736;Laerm;60856;53.238;10.448;2023-04-25T09:26:55;46.60;45.20;49.85;;
72736;Laerm;60856;53.238;10.448;2023-04-25T09:29:20;46.60;45.29;50.15;;
72736;Laerm;60856;53.238;10.448;2023-04-25T09:31:53;46.59;45.18;49.81;;
72736;Laerm;60856;53.238;10.448;2023-04-25T09:34:19;46.60;45.39;49.68;;
72736;Laerm;60856;53.238;10.448;2023-04-25T09:36:45;46.61;45.21;49.91;;
72736;Laerm;60856;53.238;10.448;2023-04-25T09:39:14;46.60;45.11;50.40;;
72736;Laerm;60856;53.238;10.448;2023-04-25T09:41:44;46.59;45.32;49.77;;
72736;Laerm;60856;53.238;10.448;2023-04-25T09:44:12;46.59;45.26;49.85;;
72736;Laerm;60856;53.238;10.448;2023-04-25T09:46:38;46.58;45.22;49.68;;
72736;Laerm;60856;53.238;10.448;2023-04-25T09:49:06;46.59;45.27;49.93;;
72736;Laerm;60856;53.238;10.448;2023-04-25T09:51:31;46.59;45.39;49.83;;
72736;Laerm;60856;53.238;10.448;2023-04-25T09:53:57;46.61;45.26;50.28;;
72736;Laerm;60856;53.238;10.448;2023-04-25T09:56:22;46.58;45.32;50.56;;
72736;Laerm;60856;53.238;10.448;2023-04-25T09:58:48;46.58;45.32;49.86;;
72736;Laerm;60856;53.238;10.448;2023-04-25T10:01:15;46.57;45.35;49.51;;
72736;Laerm;60856;53.238;10.448;2023-04-25T10:03:41;46.57;45.21;49.75;;
72736;Laerm;60856;53.238;10.448;2023-04-25T10:06:08;46.57;45.07;49.40;;
72736;Laerm;60856;53.238;10.448;2023-04-25T10:08:37;46.57;44.99;50.20;;
72736;Laerm;60856;53.238;10.448;2023-04-25T10:11:03;46.59;45.25;49.75;;
72736;Laerm;60856;53.238;10.448;2023-04-25T10:13:29;46.58;45.40;50.43;;
72736;Laerm;60856;53.238;10.448;2023-04-25T10:15:56;46.58;45.29;49.80;;
72736;Laerm;60856;53.238;10.448;2023-04-25T10:18:22;46.58;45.30;49.84;;
72736;Laerm;60856;53.238;10.448;2023-04-25T10:20:48;46.57;45.31;49.62;;
72736;Laerm;60856;53.238;10.448;2023-04-25T10:23:14;46.60;45.25;49.92;;
72736;Laerm;60856;53.238;10.448;2023-04-25T10:25:41;46.58;45.17;49.73;;
72736;Laerm;60856;53.238;10.448;2023-04-25T10:28:07;46.57;45.32;49.60;;
72736;Laerm;60856;53.238;10.448;2023-04-25T10:30:32;46.58;45.05;49.53;;
72736;Laerm;60856;53.238;10.448;2023-04-25T10:32:58;46.59;45.38;49.83;;
72736;Laerm;60856;53.238;10.448;2023-04-25T10:35:27;46.60;45.06;49.86;;
72736;Laerm;60856;53.238;10.448;2023-04-25T10:38:11;46.59;45.10;49.66;;
72736;Laerm;60856;53.238;10.448;2023-04-25T10:40:38;46.59;45.11;50.40;;
72736;Laerm;60856;53.238;10.448;2023-04-25T10:45:51;46.59;45.43;49.62;;
72736;Laerm;60856;53.238;10.448;2023-04-25T10:48:25;46.61;45.21;49.57;;
72736;Laerm;60856;53.238;10.448;2023-04-25T10:51:06;46.60;45.25;49.91;;
72736;Laerm;60856;53.238;10.448;2023-04-25T10:53:33;46.60;45.19;49.93;;
72736;Laerm;60856;53.238;10.448;2023-04-25T10:55:58;46.60;45.18;49.47;;
72736;Laerm;60856;53.238;10.448;2023-04-25T10:58:23;46.59;45.17;49.81;;
72736;Laerm;60856;53.238;10.448;2023-04-25T11:00:49;46.59;45.36;51.19;;
72736;Laerm;60856;53.238;10.448;2023-04-25T11:03:15;46.61;45.10;49.91;;
72736;Laerm;60856;53.238;10.448;2023-04-25T11:05:41;46.58;45.36;50.37;;
72736;Laerm;60856;53.238;10.448;2023-04-25T11:08:11;46.60;45.15;49.81;;
72736;Laerm;60856;53.238;10.448;2023-04-25T11:10:36;46.59;45.34;50.32;;
72736;Laerm;60856;53.238;10.448;2023-04-25T11:13:01;46.59;45.29;49.99;;
72736;Laerm;60856;53.238;10.448;2023-04-25T11:15:27;46.58;45.17;49.98;;
72736;Laerm;60856;53.238;10.448;2023-04-25T11:17:52;46.60;45.28;49.87;;
72736;Laerm;60856;53.238;10.448;2023-04-25T11:20:18;46.61;45.02;49.74;;
72736;Laerm;60856;53.238;10.448;2023-04-25T11:22:44;46.60;45.25;49.49;;
72736;Laerm;60856;53.238;10.448;2023-04-25T11:25:10;46.61;45.28;50.12;;
72736;Laerm;60856;53.238;10.448;2023-04-25T11:27:48;46.61;45.20;50.32;;
72736;Laerm;60856;53.238;10.448;2023-04-25T11:30:15;46.59;45.30;49.92;;
72736;Laerm;60856;53.238;10.448;2023-04-25T11:32:41;46.62;45.32;49.67;;
72736;Laerm;60856;53.238;10.448;2023-04-25T11:35:07;46.59;45.24;49.69;;
72736;Laerm;60856;53.238;10.448;2023-04-25T11:37:32;46.58;45.10;50.47;;
72736;Laerm;60856;53.238;10.448;2023-04-25T11:39:59;46.57;45.28;50.13;;
72736;Laerm;60856;53.238;10.448;2023-04-25T11:42:24;46.58;45.28;49.99;;
72736;Laerm;60856;53.238;10.448;2023-04-25T11:44:50;46.58;45.31;49.52;;
72736;Laerm;60856;53.238;10.448;2023-04-25T11:47:15;46.57;45.25;49.78;;
72736;Laerm;60856;53.238;10.448;2023-04-25T11:49:41;46.58;45.10;49.81;;
72736;Laerm;60856;53.238;10.448;2023-04-25T11:52:06;46.60;45.24;50.21;;
72736;Laerm;60856;53.238;10.448;2023-04-25T11:54:34;46.59;45.25;50.57;;
72736;Laerm;60856;53.238;10.448;2023-04-25T11:56:59;46.60;45.39;49.78;;
72736;Laerm;60856;53.238;10.448;2023-04-25T11:59:26;46.58;45.09;49.78;;
72736;Laerm;60856;53.238;10.448;2023-04-25T12:01:52;46.60;45.26;49.74;;
72736;Laerm;60856;53.238;10.448;2023-04-25T12:04:22;46.60;45.28;49.75;;
72736;Laerm;60856;53.238;10.448;2023-04-25T12:06:48;46.60;45.27;49.89;;
72736;Laerm;60856;53.238;10.448;2023-04-25T12:09:15;46.58;45.14;49.63;;
72736;Laerm;60856;53.238;10.448;2023-04-25T12:11:47;46.60;45.27;50.58;;
72736;Laerm;60856;53.238;10.448;2023-04-25T12:14:23;46.59;45.18;49.62;;
72736;Laerm;60856;53.238;10.448;2023-04-25T12:16:49;46.59;45.29;49.88;;
72736;Laerm;60856;53.238;10.448;2023-04-25T12:19:18;46.59;45.15;49.82;;
72736;Laerm;60856;53.238;10.448;2023-04-25T12:21:44;46.60;45.40;49.73;;
72736;Laerm;60856;53.238;10.448;2023-04-25T12:24:13;46.59;45.32;49.65;;
72736;Laerm;60856;53.238;10.448;2023-04-25T12:26:52;46.59;45.14;49.75;;
72736;Laerm;60856;53.238;10.448;2023-04-25T12:29:21;46.58;45.23;49.77;;
72736;Laerm;60856;53.238;10.448;2023-04-25T12:31:47;46.59;45.35;49.45;;
72736;Laerm;60856;53.238;10.448;2023-04-25T12:34:12;46.58;45.23;49.46;;
72736;Laerm;60856;53.238;10.448;2023-04-25T12:36:37;46.58;45.21;49.72;;
72736;Laerm;60856;53.238;10.448;2023-04-25T12:39:03;46.60;45.04;49.88;;
72736;Laerm;60856;53.238;10.448;2023-04-25T12:41:30;46.59;45.26;49.81;;
72736;Laerm;60856;53.238;10.448;2023-04-25T12:43:55;46.58;45.20;49.47;;
72736;Laerm;60856;53.238;10.448;2023-04-25T12:46:20;46.59;45.25;50.49;;
72736;Laerm;60856;53.238;10.448;2023-04-25T12:48:45;46.60;45.06;49.59;;
72736;Laerm;60856;53.238;10.448;2023-04-25T12:51:11;46.58;45.14;50.21;;
72736;Laerm;60856;53.238;10.448;2023-04-25T12:53:36;46.58;45.36;49.32;;
72736;Laerm;60856;53.238;10.448;2023-04-25T12:56:02;46.59;45.07;49.87;;
72736;Laerm;60856;53.238;10.448;2023-04-25T12:58:28;46.59;44.92;49.42;;
72736;Laerm;60856;53.238;10.448;2023-04-25T13:00:53;46.58;45.13;50.34;;
72736;Laerm;60856;53.238;10.448;2023-04-25T13:03:19;46.60;45.24;49.75;;
72736;Laerm;60856;53.238;10.448;2023-04-25T13:05:44;46.57;45.25;49.50;;
72736;Laerm;60856;53.238;10.448;2023-04-25T13:08:09;46.57;45.41;49.80;;
72736;Laerm;60856;53.238;10.448;2023-04-25T13:10:35;46.60;45.26;49.62;;
72736;Laerm;60856;53.238;10.448;2023-04-25T13:13:01;46.59;45.25;49.63;;
72736;Laerm;60856;53.238;10.448;2023-04-25T13:15:26;46.59;45.37;49.99;;
72736;Laerm;60856;53.238;10.448;2023-04-25T13:17:51;46.59;45.22;50.00;;
72736;Laerm;60856;53.238;10.448;2023-04-25T13:20:17;46.58;45.17;49.34;;
72736;Laerm;60856;53.238;10.448;2023-04-25T13:22:43;46.58;45.34;49.62;;
72736;Laerm;60856;53.238;10.448;2023-04-25T13:25:10;46.58;45.32;49.71;;
72736;Laerm;60856;53.238;10.448;2023-04-25T13:27:37;46.57;45.30;50.26;;
72736;Laerm;60856;53.238;10.448;2023-04-25T13:30:04;46.56;45.06;50.10;;
72736;Laerm;60856;53.238;10.448;2023-04-25T13:32:33;46.58;45.10;49.71;;
72736;Laerm;60856;53.238;10.448;2023-04-25T13:34:58;46.57;45.06;50.00;;
72736;Laerm;60856;53.238;10.448;2023-04-25T13:37:24;46.58;45.32;49.73;;
72736;Laerm;60856;53.238;10.448;2023-04-25T13:39:49;46.56;45.25;49.60;;
72736;Laerm;60856;53.238;10.448;2023-04-25T13:42:14;46.59;45.18;49.93;;
72736;Laerm;60856;53.238;10.448;2023-04-25T13:44:40;46.58;45.21;49.92;;
72736;Laerm;60856;53.238;10.448;2023-04-25T13:47:06;46.58;45.32;49.88;;
72736;Laerm;60856;53.238;10.448;2023-04-25T13:49:31;46.60;45.28;49.70;;
72736;Laerm;60856;53.238;10.448;2023-04-25T13:51:56;46.56;45.29;49.47;;
72736;Laerm;60856;53.238;10.448;2023-04-25T13:54:21;46.57;45.15;49.83;;
72736;Laerm;60856;53.238;10.448;2023-04-25T13:56:47;46.58;45.27;49.42;;
72736;Laerm;60856;53.238;10.448;2023-04-25T13:59:13;46.59;45.21;49.84;;
72736;Laerm;60856;53.238;10.448;2023-04-25T14:01:39;46.59;45.24;50.06;;
72736;Laerm;60856;53.238;10.448;2023-04-25T14:04:04;46.58;45.20;49.88;;
72736;Laerm;60856;53.238;10.448;2023-04-25T14:06:30;46.59;45.12;49.48;;
72736;Laerm;60856;53.238;10.448;2023-04-25T14:08:56;46.59;45.39;50.12;;
72736;Laerm;60856;53.238;10.448;2023-04-25T14:11:21;46.61;45.15;49.64;;
72736;Laerm;60856;53.238;10.448;2023-04-25T14:13:46;46.59;45.28;50.26;;
72736;Laerm;60856;53.238;10.448;2023-04-25T14:16:12;46.58;45.00;50.12;;
72736;Laerm;60856;53.238;10.448;2023-04-25T14:18:38;46.57;45.33;49.76;;
72736;Laerm;60856;53.238;10.448;2023-04-25T14:21:03;46.59;45.34;50.09;;
72736;Laerm;60856;53.238;10.448;2023-04-25T14:23:29;46.59;45.28;50.25;;
72736;Laerm;60856;53.238;10.448;2023-04-25T14:25:54;46.57;45.33;49.46;;
72736;Laerm;60856;53.238;10.448;2023-04-25T14:28:20;46.59;45.41;50.22;;
72736;Laerm;60856;53.238;10.448;2023-04-25T14:30:48;46.58;45.23;50.41;;
72736;Laerm;60856;53.238;10.448;2023-04-25T14:33:13;46.58;45.35;50.08;;
72736;Laerm;60856;53.238;10.448;2023-04-25T14:35:39;46.56;45.13;49.72;;
72736;Laerm;60856;53.238;10.448;2023-04-25T14:38:04;46.57;45.29;49.95;;
72736;Laerm;60856;53.238;10.448;2023-04-25T14:40:30;46.58;45.16;50.80;;
72736;Laerm;60856;53.238;10.448;2023-04-25T14:42:55;46.58;45.22;50.28;;
72736;Laerm;60856;53.238;10.448;2023-04-25T14:45:20;46.57;45.22;49.59;;
72736;Laerm;60856;53.238;10.448;2023-04-25T14:47:46;46.58;45.32;49.66;;
72736;Laerm;60856;53.238;10.448;2023-04-25T14:50:11;46.57;45.10;49.76;;
72736;Laerm;60856;53.238;10.448;2023-04-25T14:52:37;46.57;45.31;49.77;;
72736;Laerm;60856;53.238;10.448;2023-04-25T14:55:02;46.58;45.18;49.71;;
72736;Laerm;60856;53.238;10.448;2023-04-25T14:57:32;46.56;45.13;49.82;;
72736;Laerm;60856;53.238;10.448;2023-04-25T14:59:57;46.59;45.23;49.78;;
72736;Laerm;60856;53.238;10.448;2023-04-25T15:05:08;46.57;45.27;49.81;;
72736;Laerm;60856;53.238;10.448;2023-04-25T15:07:34;46.55;45.34;49.80;;
72736;Laerm;60856;53.238;10.448;2023-04-25T15:10:00;46.57;45.26;50.30;;
72736;Laerm;60856;53.238;10.448;2023-04-25T15:12:25;46.57;45.32;49.77;;
72736;Laerm;60856;53.238;10.448;2023-04-25T15:14:53;46.57;45.33;49.61;;
72736;Laerm;60856;53.238;10.448;2023-04-25T15:17:18;46.57;45.31;49.71;;
72736;Laerm;60856;53.238;10.448;2023-04-25T15:19:43;46.59;45.23;50.02;;
72736;Laerm;60856;53.238;10.448;2023-04-25T15:22:09;46.56;45.24;49.60;;
72736;Laerm;60856;53.238;10.448;2023-04-25T15:24:34;46.59;45.15;49.90;;
72736;Laerm;60856;53.238;10.448;2023-04-25T15:26:59;46.57;45.31;49.68;;
72736;Laerm;60856;53.238;10.448;2023-04-25T15:29:24;46.56;45.37;49.72;;
72736;Laerm;60856;53.238;10.448;2023-04-25T15:31:51;46.55;45.35;49.61;;